Time;durP1;ratioP1;P1;durP2;ratioP2;P2;SDS_P1;SDS_P2;PMS_P1;PMS_P2;Temp;Humidity;BMP_temperature;BMP_pressure;BME280_temperature;BME280_humidity;BME280_pressure;Samples;Min_cycle;Max_cycle;Signal;HPM_P1;HPM_P2
2021/06/25 00:00:19;;;;;;;8.65;4.70;;;18.90;99.90;;;;;;5077117;28;20206;-83
2021/06/25 00:02:45;;;;;;;10.05;5.50;;;;;;;;;;5095447;28;20211;-83
2021/06/25 00:05:11;;;;;;;16.35;4.97;;;19.20;99.90;;;;;;5095416;28;20634;-82
2021/06/25 00:07:37;;;;;;;9.77;5.97;;;18.90;99.90;;;;;;5077385;28;20222;-82
2021/06/25 00:10:05;;;;;;;13.18;5.32;;;19.00;99.90;;;;;;5095627;28;20261;-82
2021/06/25 00:12:31;;;;;;;8.77;4.93;;;18.30;99.90;;;;;;5094896;28;20171;-82
2021/06/25 00:14:57;;;;;;;6.68;4.38;;;;;;;;;;5093624;28;20282;-82
2021/06/25 00:17:23;;;;;;;6.47;4.22;;;18.40;99.90;;;;;;5094180;28;20230;-82
2021/06/25 00:19:49;;;;;;;8.52;3.70;;;;;;;;;;5095794;28;20631;-82
2021/06/25 00:22:15;;;;;;;8.98;3.60;;;18.70;99.90;;;;;;5094971;28;20574;-82
2021/06/25 00:24:41;;;;;;;8.15;3.50;;;;;;;;;;5095553;28;20187;-82
2021/06/25 00:27:07;;;;;;;7.43;3.50;;;19.00;99.90;;;;;;5095634;28;20186;-83
2021/06/25 00:29:33;;;;;;;5.43;3.00;;;;;;;;;;5093854;28;20185;-82
2021/06/25 00:31:58;;;;;;;6.05;2.90;;;18.00;99.90;;;;;;5095976;28;20179;-82
2021/06/25 00:34:24;;;;;;;2.97;2.53;;;18.30;99.90;;;;;;5095496;28;20271;-82
2021/06/25 00:36:50;;;;;;;6.18;2.78;;;;;;;;;;5097625;28;20203;-81
2021/06/25 00:39:16;;;;;;;7.72;3.05;;;;;;;;;;5098060;28;20187;-83
2021/06/25 00:41:42;;;;;;;4.43;2.67;;;;;;;;;;5093415;28;20178;-82
2021/06/25 00:44:16;;;;;;;5.53;2.90;;;18.90;99.90;;;;;;5095261;28;20182;-82
2021/06/25 00:46:42;;;;;;;6.53;3.33;;;18.50;99.90;;;;;;5094777;28;20179;-83
2021/06/25 00:49:08;;;;;;;6.80;3.50;;;18.70;99.90;;;;;;5094578;28;20171;-82
2021/06/25 00:51:34;;;;;;;4.97;3.05;;;;;;;;;;5093990;28;20648;-83
2021/06/25 00:54:00;;;;;;;10.60;3.25;;;;;;;;;;5094396;28;20206;-83
2021/06/25 00:56:26;;;;;;;5.72;3.42;;;18.40;99.90;;;;;;5093822;28;20191;-83
2021/06/25 00:58:51;;;;;;;5.57;3.00;;;18.70;99.90;;;;;;5092766;28;20255;-83
2021/06/25 01:01:18;;;;;;;7.82;3.15;;;;;;;;;;5094099;28;20255;-82
2021/06/25 01:03:43;;;;;;;5.43;2.75;;;18.60;99.90;;;;;;5093867;28;20202;-82
2021/06/25 01:06:10;;;;;;;11.60;3.08;;;18.50;99.90;;;;;;5092497;28;20213;-82
2021/06/25 01:08:37;;;;;;;6.53;3.05;;;18.60;99.90;;;;;;5093681;28;20232;-83
2021/06/25 01:11:04;;;;;;;6.75;3.65;;;18.70;99.90;;;;;;5093056;28;20182;-82
2021/06/25 01:13:30;;;;;;;9.93;3.42;;;18.70;99.90;;;;;;5093858;28;20238;-83
2021/06/25 01:15:56;;;;;;;11.98;3.45;;;18.50;99.90;;;;;;5093574;28;20253;-83
2021/06/25 01:18:21;;;;;;;10.73;3.40;;;18.90;99.90;;;;;;5092413;28;20647;-83
2021/06/25 01:20:48;;;;;;;8.63;3.80;;;18.40;99.90;;;;;;5093625;28;20202;-83
2021/06/25 01:23:14;;;;;;;5.38;3.25;;;;;;;;;;5093639;28;20239;-83
2021/06/25 01:25:41;;;;;;;7.20;2.92;;;;;;;;;;5093649;28;20691;-83
2021/06/25 01:28:09;;;;;;;8.55;3.50;;;18.50;99.90;;;;;;5093802;28;20258;-82
2021/06/25 01:30:39;;;;;;;6.90;2.83;;;18.10;99.90;;;;;;5093535;28;20252;-83
2021/06/25 01:33:07;;;;;;;9.82;2.97;;;18.00;99.90;;;;;;5093825;28;20216;-83
2021/06/25 01:35:34;;;;;;;9.27;3.42;;;18.10;99.90;;;;;;5093393;28;20170;-83
2021/06/25 01:38:00;;;;;;;6.55;2.97;;;18.30;99.90;;;;;;5092572;28;20237;-83
2021/06/25 01:40:26;;;;;;;8.18;3.25;;;;;;;;;;5093773;28;20238;-84
2021/06/25 01:42:52;;;;;;;7.25;3.58;;;;;;;;;;5093662;28;20230;-83
2021/06/25 01:45:23;;;;;;;7.07;3.28;;;18.60;99.90;;;;;;5092510;28;20546;-83
2021/06/25 01:47:51;;;;;;;8.80;3.15;;;18.00;99.90;;;;;;5093517;28;20608;-83
2021/06/25 01:50:24;;;;;;;5.47;3.50;;;18.00;99.90;;;;;;5093425;28;20177;-83
2021/06/25 01:52:56;;;;;;;6.40;3.58;;;17.80;99.90;;;;;;5091567;28;20162;-83
2021/06/25 01:55:22;;;;;;;9.75;3.60;;;18.00;99.90;;;;;;5093388;28;20185;-83
2021/06/25 01:57:48;;;;;;;7.28;3.90;;;17.90;99.90;;;;;;5091948;28;20202;-83
2021/06/25 02:00:15;;;;;;;5.78;3.75;;;17.80;99.90;;;;;;5093347;28;20304;-83
2021/06/25 02:02:40;;;;;;;6.50;3.28;;;18.20;99.90;;;;;;5093089;28;20174;-83
2021/06/25 02:05:09;;;;;;;7.45;3.05;;;18.10;99.90;;;;;;5093350;28;20181;-84
2021/06/25 02:07:35;;;;;;;6.70;3.13;;;18.10;99.90;;;;;;5093073;28;20175;-83
2021/06/25 02:10:01;;;;;;;5.95;2.80;;;;;;;;;;5093154;28;20749;-84
2021/06/25 02:12:27;;;;;;;7.28;2.97;;;;;;;;;;5093035;28;20269;-83
2021/06/25 02:14:53;;;;;;;3.80;2.47;;;18.50;99.90;;;;;;5092670;28;20305;-83
2021/06/25 02:17:20;;;;;;;5.28;2.40;;;18.10;99.90;;;;;;5092778;28;20195;-83
2021/06/25 02:19:46;;;;;;;4.28;2.55;;;17.70;99.90;;;;;;5093186;28;20190;-83
2021/06/25 02:22:12;;;;;;;6.65;2.75;;;18.00;99.90;;;;;;5091736;28;20266;-83
2021/06/25 02:24:38;;;;;;;5.53;2.10;;;18.50;99.90;;;;;;5092812;28;20179;-84
2021/06/25 02:27:04;;;;;;;4.45;2.10;;;17.90;99.90;;;;;;5093281;28;20183;-83
2021/06/25 02:29:30;;;;;;;4.72;1.80;;;;;;;;;;5093151;28;20206;-83
2021/06/25 02:31:57;;;;;;;6.13;2.28;;;18.40;99.90;;;;;;5093584;28;20190;-83
2021/06/25 02:34:23;;;;;;;7.22;3.65;;;18.10;99.90;;;;;;5093268;28;20184;-83
2021/06/25 02:36:49;;;;;;;6.07;2.55;;;;;;;;;;5092657;28;20210;-83
2021/06/25 02:39:15;;;;;;;4.82;2.65;;;18.10;99.90;;;;;;5091906;28;20243;-83
2021/06/25 02:41:41;;;;;;;4.68;2.50;;;;;;;;;;5092621;28;20620;-83
2021/06/25 02:44:08;;;;;;;7.43;2.47;;;18.30;99.90;;;;;;5093090;28;20220;-83
2021/06/25 02:46:34;;;;;;;7.38;2.22;;;18.00;99.90;;;;;;5092420;28;20239;-84
2021/06/25 02:49:00;;;;;;;3.47;2.80;;;;;;;;;;5092712;28;20683;-84
2021/06/25 02:51:26;;;;;;;5.65;2.70;;;;;;;;;;5091718;28;20175;-85
2021/06/25 02:53:52;;;;;;;6.72;2.72;;;18.30;99.90;;;;;;5092125;28;20179;-83
2021/06/25 02:56:18;;;;;;;3.25;2.47;;;;;;;;;;5091894;28;20623;-83
2021/06/25 02:58:44;;;;;;;5.25;2.15;;;18.00;99.90;;;;;;5092191;28;20201;-83
2021/06/25 03:01:09;;;;;;;4.82;2.85;;;18.20;99.90;;;;;;5092765;28;20183;-82
2021/06/25 03:03:35;;;;;;;6.25;2.58;;;;;;;;;;5092880;28;20258;-83
2021/06/25 03:06:02;;;;;;;8.60;2.70;;;18.30;99.90;;;;;;5096459;28;20185;-83
2021/06/25 03:08:27;;;;;;;5.32;2.50;;;18.40;99.90;;;;;;5095073;28;20228;-83
2021/06/25 03:10:53;;;;;;;6.30;2.63;;;;;;;;;;5096221;28;20179;-83
2021/06/25 03:13:20;;;;;;;5.63;2.45;;;18.20;99.90;;;;;;5078424;28;20270;-84
2021/06/25 03:15:47;;;;;;;6.90;2.50;;;17.90;99.90;;;;;;5094486;28;20222;-82
2021/06/25 03:18:14;;;;;;;7.13;2.42;;;18.40;99.90;;;;;;5096059;28;20229;-82
2021/06/25 03:20:40;;;;;;;3.33;2.65;;;18.10;99.90;;;;;;5095780;28;20179;-84
2021/06/25 03:23:06;;;;;;;8.43;2.75;;;18.00;99.90;;;;;;5078268;28;20170;-83
2021/06/25 03:25:32;;;;;;;3.65;2.50;;;18.00;99.90;;;;;;5094916;28;20185;-82
2021/06/25 03:27:58;;;;;;;4.28;2.63;;;;;;;;;;5095615;28;20241;-83
2021/06/25 03:30:25;;;;;;;7.85;2.30;;;18.30;99.90;;;;;;5094605;28;20179;-83
2021/06/25 03:32:51;;;;;;;6.00;2.20;;;18.10;99.90;;;;;;5094504;28;20658;-83
2021/06/25 03:35:17;;;;;;;5.88;2.20;;;;;;;;;;5095975;28;20524;-83
2021/06/25 03:37:42;;;;;;;3.85;2.30;;;18.00;99.90;;;;;;5094422;28;20551;-84
2021/06/25 03:40:11;;;;;;;4.28;1.88;;;18.20;99.90;;;;;;5095779;28;20182;-83
2021/06/25 03:42:38;;;;;;;4.00;2.28;;;18.40;99.90;;;;;;5095947;28;20263;-82
2021/06/25 03:45:06;;;;;;;4.20;2.30;;;18.60;99.90;;;;;;5095274;28;20323;-82
2021/06/25 03:47:32;;;;;;;4.38;2.47;;;;;;;;;;5095285;28;20512;-82
2021/06/25 03:49:58;;;;;;;4.10;2.30;;;18.70;99.90;;;;;;5094810;28;20185;-84
2021/06/25 03:52:24;;;;;;;7.95;2.20;;;;;;;;;;5094319;28;20171;-83
2021/06/25 03:54:50;;;;;;;4.72;2.25;;;18.30;99.90;;;;;;5095232;28;20174;-83
2021/06/25 03:57:16;;;;;;;6.80;3.38;;;;;;;;;;5095195;28;20260;-83
2021/06/25 03:59:42;;;;;;;8.93;2.25;;;18.60;99.90;;;;;;5095729;28;20178;-83
2021/06/25 04:02:09;;;;;;;8.52;2.88;;;18.50;99.90;;;;;;5094749;28;20175;-83
2021/06/25 04:04:39;;;;;;;4.15;2.33;;;18.70;99.90;;;;;;5095004;28;20174;-83
2021/06/25 04:07:06;;;;;;;5.38;2.22;;;18.90;99.90;;;;;;5093419;28;20967;-83
2021/06/25 04:09:33;;;;;;;7.85;2.60;;;18.60;99.90;;;;;;5093848;28;20178;-84
2021/06/25 04:11:59;;;;;;;4.60;2.25;;;19.00;99.90;;;;;;5094580;28;20650;-84
2021/06/25 04:14:25;;;;;;;6.13;1.92;;;18.80;99.90;;;;;;5094481;28;20174;-83
2021/06/25 04:16:51;;;;;;;7.30;2.60;;;19.10;99.90;;;;;;5094030;28;22144;-84
2021/06/25 04:19:17;;;;;;;3.35;2.08;;;;;;;;;;5094961;28;20609;-83
2021/06/25 04:21:43;;;;;;;7.40;2.17;;;;;;;;;;5094789;28;20239;-84
2021/06/25 04:24:08;;;;;;;3.38;1.92;;;18.40;99.90;;;;;;5093431;28;20206;-84
2021/06/25 04:26:36;;;;;;;4.20;2.10;;;;;;;;;;5095466;28;20224;-84
2021/06/25 04:29:04;;;;;;;6.97;1.92;;;19.20;99.90;;;;;;5094496;28;20179;-84
2021/06/25 04:31:32;;;;;;;6.07;1.90;;;18.60;99.90;;;;;;5093414;28;20628;-84
2021/06/25 04:33:58;;;;;;;3.17;2.50;;;19.00;99.90;;;;;;5094302;28;20642;-84
2021/06/25 04:36:24;;;;;;;4.25;2.00;;;;;;;;;;5094356;28;20174;-83
2021/06/25 04:38:50;;;;;;;3.35;2.13;;;;;;;;;;5092632;28;20727;-84
2021/06/25 04:41:16;;;;;;;5.53;2.50;;;19.40;99.90;;;;;;5094064;28;20269;-84
2021/06/25 04:43:42;;;;;;;4.20;2.70;;;;;;;;;;5093193;28;20257;-84
2021/06/25 04:46:08;;;;;;;6.35;2.30;;;19.20;99.90;;;;;;5093788;28;20182;-84
2021/06/25 04:48:34;;;;;;;4.25;2.05;;;19.00;99.90;;;;;;5094359;28;20178;-84
2021/06/25 04:51:01;;;;;;;4.57;2.30;;;19.00;99.90;;;;;;5093927;28;20197;-85
2021/06/25 04:53:27;;;;;;;5.90;2.33;;;19.00;99.90;;;;;;5095496;28;20247;-85
2021/06/25 04:55:53;;;;;;;4.47;1.95;;;19.00;99.90;;;;;;5075905;28;20217;-85
2021/06/25 04:58:22;;;;;;;3.53;2.58;;;;;;;;;;5092983;28;20608;-85
2021/06/25 05:00:48;;;;;;;6.20;2.85;;;18.70;99.90;;;;;;5092813;28;20236;-85
2021/06/25 05:03:14;;;;;;;4.30;2.65;;;19.40;99.90;;;;;;5094471;28;20179;-84
2021/06/25 05:05:45;;;;;;;5.78;2.78;;;19.60;99.90;;;;;;5093440;28;20182;-84
2021/06/25 05:08:11;;;;;;;6.22;2.63;;;19.50;99.90;;;;;;5093156;28;20631;-84
2021/06/25 05:10:37;;;;;;;4.75;2.50;;;19.40;99.90;;;;;;5093622;28;20206;-83
2021/06/25 05:13:04;;;;;;;6.10;2.53;;;19.40;99.90;;;;;;5092884;28;20179;-84
2021/06/25 05:15:30;;;;;;;7.47;2.90;;;19.50;99.90;;;;;;5093222;28;20237;-85
2021/06/25 05:17:56;;;;;;;9.20;3.00;;;19.20;99.90;;;;;;5093153;28;20198;-85
2021/06/25 05:20:22;;;;;;;4.50;3.35;;;20.00;99.90;;;;;;5093299;28;20185;-85
2021/06/25 05:22:48;;;;;;;4.38;2.83;;;19.70;99.90;;;;;;5093154;28;20198;-84
2021/06/25 05:25:14;;;;;;;5.15;2.70;;;;;;;;;;5092284;28;20205;-84
2021/06/25 05:27:40;;;;;;;3.67;2.80;;;19.50;99.90;;;;;;5093038;28;20235;-85
2021/06/25 05:30:07;;;;;;;5.40;2.80;;;19.30;99.90;;;;;;5093222;28;20190;-85
2021/06/25 05:32:33;;;;;;;16.00;3.80;;;19.90;99.90;;;;;;5093186;28;20170;-84
2021/06/25 05:35:00;;;;;;;12.40;3.10;;;20.30;99.90;;;;;;5090860;28;20205;-84
2021/06/25 05:37:26;;;;;;;6.07;3.25;;;;;;;;;;5092498;28;20207;-84
2021/06/25 05:39:52;;;;;;;6.38;3.30;;;;;;;;;;5092713;28;20174;-84
2021/06/25 05:42:18;;;;;;;8.20;3.55;;;;;;;;;;5092639;28;20171;-84
2021/06/25 05:44:44;;;;;;;6.15;3.50;;;;;;;;;;5092875;28;20175;-84
2021/06/25 05:47:10;;;;;;;7.18;3.83;;;19.80;99.90;;;;;;5092389;28;20190;-84
2021/06/25 05:49:37;;;;;;;7.45;3.28;;;;;;;;;;5091578;28;20181;-84
2021/06/25 05:52:03;;;;;;;12.85;3.00;;;;;;;;;;5092827;28;20179;-84
2021/06/25 05:54:29;;;;;;;7.22;2.83;;;;;;;;;;5092945;28;20733;-84
2021/06/25 05:56:55;;;;;;;7.63;2.95;;;;;;;;;;5092673;28;22657;-84
2021/06/25 05:59:21;;;;;;;6.78;3.78;;;;;;;;;;5091219;28;21089;-84
2021/06/25 06:01:47;;;;;;;10.38;3.60;;;;;;;;;;5091639;28;20654;-84
2021/06/25 06:04:13;;;;;;;12.25;3.55;;;20.20;99.90;;;;;;5091575;28;20178;-84
2021/06/25 06:06:39;;;;;;;5.95;3.78;;;;;;;;;;5090808;28;20220;-84
2021/06/25 06:09:05;;;;;;;10.63;4.45;;;20.00;99.90;;;;;;5091906;28;20258;-84
2021/06/25 06:11:31;;;;;;;7.88;4.00;;;;;;;;;;5090799;28;20274;-84
2021/06/25 06:13:56;;;;;;;5.60;3.47;;;19.60;99.90;;;;;;5073795;28;20187;-84
2021/06/25 06:16:23;;;;;;;7.07;3.25;;;;;;;;;;5096805;28;20409;-84
2021/06/25 06:18:49;;;;;;;6.93;3.35;;;19.70;99.90;;;;;;5105653;28;20205;-83
2021/06/25 06:21:19;;;;;;;5.90;3.13;;;20.00;99.90;;;;;;5105864;28;20186;-84
2021/06/25 06:32:05;;;;;;;9.52;3.60;;;19.90;99.90;;;;;;5090171;28;20237;-84
2021/06/25 06:34:35;;;;;;;7.25;3.80;;;19.80;99.90;;;;;;5090857;28;20159;-83
2021/06/25 06:37:01;;;;;;;7.72;4.03;;;20.00;99.90;;;;;;5090084;28;20579;-83
2021/06/25 06:39:29;;;;;;;7.53;4.03;;;;;;;;;;5095650;28;20182;-85
2021/06/25 06:41:55;;;;;;;13.25;4.22;;;20.00;99.90;;;;;;5096794;28;20173;-83
2021/06/25 06:44:21;;;;;;;5.60;3.83;;;19.60;99.90;;;;;;5096959;28;20182;-84
2021/06/25 06:46:46;;;;;;;12.00;4.28;;;20.00;99.90;;;;;;5096290;28;20186;-82
2021/06/25 06:49:12;;;;;;;7.85;4.03;;;;;;;;;;5095125;28;20178;-83
2021/06/25 06:51:39;;;;;;;9.05;4.50;;;19.60;99.90;;;;;;5095293;28;20259;-83
2021/06/25 06:54:05;;;;;;;14.68;4.93;;;19.60;99.90;;;;;;5096626;28;20216;-83
2021/06/25 06:56:32;;;;;;;18.65;6.38;;;19.80;99.90;;;;;;5096405;28;20178;-83
2021/06/25 06:59:00;;;;;;;8.10;4.32;;;20.70;99.90;;;;;;5096471;28;20207;-83
2021/06/25 07:01:27;;;;;;;8.27;4.40;;;20.00;99.90;;;;;;5096297;28;20202;-83
2021/06/25 07:03:53;;;;;;;6.93;3.95;;;20.10;99.90;;;;;;5094938;28;20185;-83
2021/06/25 07:06:19;;;;;;;13.98;4.80;;;;;;;;;;5094801;28;20623;-84
2021/06/25 07:08:45;;;;;;;8.85;4.00;;;20.10;99.90;;;;;;5096436;28;20254;-83
2021/06/25 07:11:11;;;;;;;7.47;4.00;;;;;;;;;;5093970;28;20273;-83
2021/06/25 07:13:37;;;;;;;13.23;4.03;;;20.80;99.90;;;;;;5093897;28;20183;-84
2021/06/25 07:16:03;;;;;;;9.85;4.22;;;21.00;99.90;;;;;;5094165;28;20724;-83
2021/06/25 07:18:29;;;;;;;12.60;4.80;;;;;;;;;;5093636;28;20203;-83
2021/06/25 07:20:55;;;;;;;11.45;4.20;;;;;;;;;;5092850;28;20546;-83
2021/06/25 07:23:22;;;;;;;7.78;3.90;;;;;;;;;;5093944;28;20182;-83
2021/06/25 07:25:47;;;;;;;12.90;4.35;;;20.50;99.90;;;;;;5094398;28;20185;-83
2021/06/25 07:28:14;;;;;;;9.65;4.50;;;;;;;;;;5095683;28;20178;-83
2021/06/25 07:30:40;;;;;;;10.93;4.25;;;20.60;99.90;;;;;;5096060;28;20304;-83
2021/06/25 07:33:06;;;;;;;14.15;5.35;;;21.20;99.90;;;;;;5095731;28;20537;-83
2021/06/25 07:35:32;;;;;;;12.38;4.68;;;20.80;99.90;;;;;;5095265;28;20227;-83
2021/06/25 07:37:58;;;;;;;13.27;4.50;;;;;;;;;;5095915;28;20655;-83
2021/06/25 07:40:24;;;;;;;8.57;4.65;;;21.40;99.90;;;;;;5095473;28;20189;-84
2021/06/25 07:42:50;;;;;;;8.50;4.75;;;;;;;;;;5094668;28;20265;-83
2021/06/25 07:45:16;;;;;;;6.10;5.10;;;;;;;;;;5095770;28;20698;-83
2021/06/25 07:47:43;;;;;;;8.45;4.68;;;21.10;99.90;;;;;;5094339;28;20210;-83
2021/06/25 07:50:13;;;;;;;8.18;4.85;;;21.80;99.90;;;;;;5094055;28;20273;-84
2021/06/25 07:52:39;;;;;;;7.40;4.93;;;;;;;;;;5093735;28;20171;-83
2021/06/25 07:55:06;;;;;;;9.73;5.07;;;21.70;99.90;;;;;;5094356;28;20182;-83
2021/06/25 07:57:32;;;;;;;10.40;5.15;;;;;;;;;;5094566;28;20195;-82
2021/06/25 07:59:57;;;;;;;9.48;5.10;;;22.60;99.90;;;;;;5093917;28;20186;-85
2021/06/25 08:02:24;;;;;;;15.98;5.50;;;;;;;;;;5075753;28;20240;-85
2021/06/25 08:04:50;;;;;;;10.95;5.20;;;;;;;;;;5093995;28;20213;-83
2021/06/25 08:07:17;;;;;;;9.82;5.35;;;22.20;99.90;;;;;;5093884;28;20175;-82
2021/06/25 08:09:43;;;;;;;9.70;5.60;;;;;;;;;;5092191;28;20194;-84
2021/06/25 08:12:12;;;;;;;9.68;5.72;;;22.40;99.90;;;;;;5093055;28;20270;-84
2021/06/25 08:14:38;;;;;;;7.18;4.43;;;;;;;;;;5094613;28;20261;-84
2021/06/25 08:17:05;;;;;;;9.70;4.57;;;22.20;99.90;;;;;;5095909;28;20198;-83
2021/06/25 08:19:31;;;;;;;6.68;4.55;;;;;;;;;;5097157;28;20589;-84
2021/06/25 08:21:57;;;;;;;10.60;5.47;;;22.90;99.90;;;;;;5076951;28;20232;-83
2021/06/25 08:24:23;;;;;;;6.95;4.78;;;;;;;;;;5094609;28;20182;-84
2021/06/25 08:26:49;;;;;;;10.75;5.10;;;22.40;99.90;;;;;;5094280;28;20202;-85
2021/06/25 08:29:15;;;;;;;9.07;4.90;;;;;;;;;;5095540;28;20186;-83
2021/06/25 08:31:41;;;;;;;9.60;4.90;;;;;;;;;;5093104;28;20527;-83
2021/06/25 08:34:11;;;;;;;9.65;4.47;;;;;;;;;;5094864;28;20183;-83
2021/06/25 08:36:38;;;;;;;6.25;4.60;;;23.00;99.90;;;;;;5094339;28;20174;-83
2021/06/25 08:39:04;;;;;;;5.13;4.13;;;;;;;;;;5093094;28;20260;-84
2021/06/25 08:41:31;;;;;;;9.73;4.30;;;;;;;;;;5094276;28;20175;-84
2021/06/25 08:43:56;;;;;;;5.65;4.38;;;22.70;99.90;;;;;;5094295;28;20178;-84
2021/06/25 08:46:24;;;;;;;12.80;4.97;;;23.20;99.90;;;;;;5094062;28;20197;-84
2021/06/25 08:48:52;;;;;;;6.30;4.05;;;23.30;99.90;;;;;;5093753;28;20232;-84
2021/06/25 08:51:18;;;;;;;6.75;4.43;;;23.20;99.90;;;;;;5094409;28;20262;-84
2021/06/25 08:53:44;;;;;;;8.63;4.65;;;23.40;99.90;;;;;;5093891;28;20175;-84
2021/06/25 08:56:10;;;;;;;6.93;4.80;;;;;;;;;;5094150;28;20175;-83
2021/06/25 08:58:36;;;;;;;9.70;4.90;;;;;;;;;;5093719;28;20261;-82
2021/06/25 09:01:03;;;;;;;8.15;4.22;;;;;;;;;;5093496;28;20175;-83
2021/06/25 09:03:33;;;;;;;7.95;4.65;;;23.70;99.90;;;;;;5093361;28;20182;-83
2021/06/25 09:06:14;;;;;;;10.88;5.28;;;23.90;99.90;;;;;;5094114;28;20611;-81
2021/06/25 09:08:42;;;;;;;11.27;4.95;;;23.70;99.90;;;;;;5092405;28;20177;-83
2021/06/25 09:11:30;;;;;;;9.23;5.90;;;23.80;99.90;;;;;;5093909;28;20269;-82
2021/06/25 09:14:04;;;;;;;14.18;6.63;;;23.70;99.90;;;;;;5092835;28;20174;-82
2021/06/25 09:16:31;;;;;;;9.10;6.20;;;23.80;99.90;;;;;;5093215;28;20774;-83
2021/06/25 09:19:22;;;;;;;11.93;6.90;;;24.30;99.90;;;;;;5093753;28;20205;-83
2021/06/25 09:22:03;;;;;;;14.70;7.55;;;23.70;99.90;;;;;;5093437;28;20254;-83
2021/06/25 09:24:29;;;;;;;14.57;9.15;;;;;;;;;;5093616;28;20170;-82
2021/06/25 09:27:04;;;;;;;16.83;10.02;;;23.80;99.90;;;;;;5093369;28;20178;-83
2021/06/25 09:29:40;;;;;;;17.02;10.23;;;23.60;99.90;;;;;;5092786;28;20160;-82
2021/06/25 09:32:08;;;;;;;16.33;12.07;;;23.70;99.90;;;;;;5094002;28;20619;-83
2021/06/25 09:34:39;;;;;;;16.80;10.90;;;23.40;99.90;;;;;;5093465;28;20232;-83
2021/06/25 09:37:08;;;;;;;23.42;11.80;;;23.10;99.90;;;;;;5093721;28;20285;-83
2021/06/25 09:39:34;;;;;;;19.70;13.13;;;23.80;99.90;;;;;;5092353;28;20521;-83
2021/06/25 09:42:00;;;;;;;20.77;13.82;;;;;;;;;;5093551;28;20182;-83
2021/06/25 09:44:26;;;;;;;19.60;13.15;;;;;;;;;;5093315;28;20257;-84
2021/06/25 09:46:54;;;;;;;19.30;13.02;;;23.20;99.90;;;;;;5092228;28;20227;-83
2021/06/25 09:49:28;;;;;;;22.70;14.25;;;23.20;99.90;;;;;;5093436;28;20191;-84
2021/06/25 09:51:57;;;;;;;21.45;14.38;;;23.10;99.90;;;;;;5093764;28;20166;-83
2021/06/25 09:54:23;;;;;;;16.08;11.45;;;23.10;99.90;;;;;;5092500;28;20174;-83
2021/06/25 09:57:00;;;;;;;16.50;10.52;;;23.10;99.90;;;;;;5092165;28;20178;-83
2021/06/25 10:01:52;;;;;;;15.60;10.52;;;;;;;;;;5091615;28;20182;-83
2021/06/25 10:04:37;;;;;;;17.55;9.68;;;23.10;99.90;;;;;;5072434;28;20213;-83
2021/06/25 10:07:30;;;;;;;14.50;9.50;;;22.80;99.90;;;;;;5089955;28;20182;-83
2021/06/25 10:10:06;;;;;;;15.20;10.35;;;23.10;99.90;;;;;;5086421;28;20183;-83
2021/06/25 10:12:33;;;;;;;17.08;10.70;;;;;;;;;;5091098;28;20182;-84
2021/06/25 10:15:01;;;;;;;23.33;10.88;;;26.20;99.90;;;;;;5095968;28;20255;-84
2021/06/25 10:17:28;;;;;;;11.57;8.20;;;;;;;;;;5095885;28;20331;-83
2021/06/25 10:20:03;;;;;;;17.92;12.48;;;23.20;99.90;;;;;;5096072;28;20275;-83
2021/06/25 10:22:29;;;;;;;18.70;6.25;;;;;;;;;;5096540;28;20166;-84
2021/06/25 10:24:55;;;;;;;9.88;5.53;;;;;;;;;;5096068;28;20186;-84
2021/06/25 10:27:22;;;;;;;7.60;5.00;;;23.20;99.90;;;;;;5096381;28;20178;-83
2021/06/25 10:29:49;;;;;;;8.20;4.93;;;23.20;99.90;;;;;;5096055;28;20186;-84
2021/06/25 10:32:16;;;;;;;12.70;8.73;;;;;;;;;;5094331;28;20171;-85
2021/06/25 10:34:44;;;;;;;14.63;9.52;;;23.10;99.90;;;;;;5091694;28;20190;-85
2021/06/25 10:37:15;;;;;;;8.23;5.20;;;23.20;99.90;;;;;;5077185;28;20557;-85
2021/06/25 10:39:41;;;;;;;7.72;4.93;;;;;;;;;;5107394;28;20178;-86
2021/06/25 10:42:09;;;;;;;6.35;5.05;;;22.80;99.90;;;;;;5096816;28;20213;-86
2021/06/25 10:44:54;;;;;;;7.55;4.80;;;22.80;99.90;;;;;;5096524;28;20186;-83
2021/06/25 10:47:32;;;;;;;6.43;4.97;;;23.00;99.90;;;;;;5096608;28;20173;-84
2021/06/25 10:50:01;;;;;;;8.95;4.72;;;22.70;99.90;;;;;;5096397;28;20619;-84
2021/06/25 10:52:34;;;;;;;9.57;5.45;;;22.50;99.90;;;;;;5096455;28;20174;-85
2021/06/25 10:55:19;;;;;;;11.35;5.32;;;22.50;99.90;;;;;;5094261;28;20257;-84
2021/06/25 10:57:50;;;;;;;11.38;6.40;;;22.50;99.90;;;;;;5095792;28;20554;-83
2021/06/25 11:00:30;;;;;;;11.98;7.60;;;22.30;99.90;;;;;;5096326;28;20190;-84
2021/06/25 11:02:56;;;;;;;10.30;5.68;;;22.10;99.90;;;;;;5095808;28;20194;-85
2021/06/25 11:05:24;;;;;;;8.50;5.95;;;22.00;99.90;;;;;;5094626;28;20267;-84
2021/06/25 11:07:51;;;;;;;10.55;5.65;;;21.70;99.90;;;;;;5093876;28;20536;-84
2021/06/25 11:10:32;;;;;;;7.70;5.50;;;22.40;99.90;;;;;;5092988;28;20183;-84
2021/06/25 11:13:12;;;;;;;13.15;6.38;;;22.00;99.90;;;;;;5092745;28;20181;-84
2021/06/25 11:15:46;;;;;;;15.30;6.93;;;22.30;99.90;;;;;;5094476;28;20286;-84
2021/06/25 11:18:31;;;;;;;12.82;7.03;;;21.70;99.90;;;;;;5093958;28;20202;-84
2021/06/25 11:21:05;;;;;;;12.25;6.75;;;21.60;99.90;;;;;;5092331;28;20231;-84
2021/06/25 11:23:44;;;;;;;26.58;7.70;;;21.60;99.90;;;;;;5093842;28;20162;-85
2021/06/25 11:26:18;;;;;;;15.80;7.88;;;21.60;99.90;;;;;;5092615;28;20586;-84
2021/06/25 11:28:50;;;;;;;15.88;8.70;;;21.60;99.90;;;;;;5093231;28;20174;-84
2021/06/25 11:31:17;;;;;;;12.80;7.40;;;;;;;;;;5091496;28;20159;-84
2021/06/25 11:33:43;;;;;;;21.27;8.13;;;;;;;;;;5089882;28;20178;-85
2021/06/25 11:36:14;;;;;;;19.38;8.52;;;22.00;99.90;;;;;;5094028;28;20193;-84
2021/06/25 11:38:55;;;;;;;12.70;7.57;;;21.30;99.90;;;;;;5093592;28;20197;-84
2021/06/25 11:41:22;;;;;;;14.77;7.72;;;21.70;99.90;;;;;;5092804;28;20206;-83
2021/06/25 11:43:49;;;;;;;14.35;9.10;;;21.70;99.90;;;;;;5095247;28;20193;-84
2021/06/25 11:46:19;;;;;;;14.43;9.00;;;21.50;99.90;;;;;;5093226;28;21446;-83
2021/06/25 11:48:45;;;;;;;12.77;7.63;;;21.60;99.90;;;;;;5092013;28;20174;-83
2021/06/25 11:51:13;;;;;;;24.20;9.55;;;21.60;99.90;;;;;;5093484;28;20198;-86
2021/06/25 11:53:43;;;;;;;21.73;8.48;;;21.60;99.90;;;;;;5094029;28;20170;-84
2021/06/25 11:56:23;;;;;;;15.90;8.15;;;21.40;99.90;;;;;;5093987;28;20604;-83
2021/06/25 11:59:05;;;;;;;15.30;8.63;;;22.00;99.90;;;;;;5094376;28;20254;-84
2021/06/25 12:01:32;;;;;;;17.48;8.95;;;21.80;99.90;;;;;;5093766;28;20174;-84
2021/06/25 12:03:59;;;;;;;19.67;9.02;;;21.50;99.90;;;;;;5094202;28;20228;-84
2021/06/25 12:06:25;;;;;;;15.65;8.35;;;;;;;;;;5094400;28;20183;-84
2021/06/25 12:09:00;;;;;;;21.95;9.32;;;21.60;99.90;;;;;;5094000;28;20178;-84
2021/06/25 12:11:28;;;;;;;16.13;8.43;;;21.50;99.90;;;;;;5094574;28;20174;-83
2021/06/25 12:14:06;;;;;;;19.48;8.98;;;21.90;99.90;;;;;;5094112;28;20178;-84
2021/06/25 12:16:34;;;;;;;24.27;8.80;;;21.50;99.90;;;;;;5092893;28;20265;-84
2021/06/25 12:19:00;;;;;;;85.13;11.95;;;21.50;99.90;;;;;;5091187;28;20206;-84
2021/06/25 12:21:29;;;;;;;26.58;9.23;;;21.50;99.90;;;;;;5094255;28;20652;-84
2021/06/25 12:23:57;;;;;;;27.75;9.27;;;21.50;99.90;;;;;;5094170;28;20202;-83
2021/06/25 12:26:27;;;;;;;20.35;11.90;;;21.50;99.90;;;;;;5091884;28;20312;-83
2021/06/25 12:28:59;;;;;;;28.50;13.10;;;21.60;99.90;;;;;;5094129;28;20179;-84
2021/06/25 12:31:30;;;;;;;22.45;13.45;;;22.10;99.90;;;;;;5092233;28;20181;-84
2021/06/25 12:34:13;;;;;;;27.15;14.23;;;21.40;99.90;;;;;;5092510;28;20194;-83
2021/06/25 12:36:39;;;;;;;27.63;13.18;;;21.60;99.90;;;;;;5093644;28;20240;-84
2021/06/25 12:39:07;;;;;;;25.70;14.93;;;21.50;99.90;;;;;;5094250;28;20651;-84
2021/06/25 12:41:43;;;;;;;33.67;17.08;;;21.50;99.90;;;;;;5094273;28;20186;-83
2021/06/25 12:44:11;;;;;;;26.98;14.73;;;21.40;99.90;;;;;;5094242;28;20167;-84
2021/06/25 12:46:38;;;;;;;23.17;14.00;;;;;;;;;;5090945;28;20655;-84
2021/06/25 12:49:05;;;;;;;27.90;13.40;;;21.10;99.90;;;;;;5092996;28;20192;-84
2021/06/25 12:51:37;;;;;;;27.55;14.00;;;21.80;99.90;;;;;;5093678;28;20170;-84
2021/06/25 12:54:05;;;;;;;27.13;14.23;;;21.50;99.90;;;;;;5100456;28;20174;-83
2021/06/25 12:56:37;;;;;;;30.55;15.57;;;21.90;99.90;;;;;;5092458;28;20228;-84
2021/06/25 12:59:07;;;;;;;26.05;15.38;;;21.70;99.90;;;;;;5093269;28;20263;-84
2021/06/25 13:01:37;;;;;;;28.92;14.88;;;21.60;99.90;;;;;;5092562;28;20189;-84
2021/06/25 13:04:03;;;;;;;30.42;15.82;;;21.30;99.90;;;;;;5093520;28;20198;-84
2021/06/25 13:06:34;;;;;;;33.53;16.00;;;21.60;99.90;;;;;;5093531;28;20209;-85
2021/06/25 13:09:19;;;;;;;37.05;15.50;;;21.60;99.90;;;;;;5093718;28;20174;-84
2021/06/25 13:11:47;;;;;;;29.70;14.10;;;;;;;;;;5093839;28;20174;-85
2021/06/25 13:14:29;;;;;;;34.13;16.50;;;21.60;99.90;;;;;;5091361;28;20543;-86
2021/06/25 13:17:01;;;;;;;28.45;15.15;;;21.80;99.90;;;;;;5093382;28;20222;-85
2021/06/25 13:19:35;;;;;;;31.40;14.88;;;21.70;99.90;;;;;;5093250;28;20170;-84
2021/06/25 13:22:22;;;;;;;33.30;15.57;;;21.60;99.90;;;;;;5092664;28;20174;-84
2021/06/25 13:25:19;;;;;;;30.17;16.30;;;21.80;99.90;;;;;;5093803;28;20216;-83
2021/06/25 13:27:45;;;;;;;25.92;15.70;;;;;;;;;;5090702;28;20585;-85